Marlinton, WV

10:23 PM EDT on September 04, 2015 (GMT -0400)
Thomastown | | Change Station
CLOSE
Current Station
Personal Weather Station
Location: Hot Springs, VA
Elevation: 2290 ft
Nearby Weather Stations

Elev 2290 ft 38.01 °N, 79.84 °W | Updated 3 seconds ago

Clear
Clear
67.1 °F
Feels Like 67.1 °F
N
0.0
Wind Variable Wind from SSW
Gusts 0.0 mph

Today
High -- | Low -- °F
--% Chance of Precip.
Yesterday
High -- | Low -- °F
Precip. -- in
6:52 AM 7:45 PM
Waning Gibbous, 53% visible
Pressure 30.26 in
Visibility 7.0 miles
Clouds Clear
Dew Point 57 °F
Humidity 69%
Rainfall 0.04 in
Snow Depth Not available.
UV 0 out of 12
Pollen 9.30 out of 12
Air Quality Not available.
Flu Activity Not available.
METAR KHSP 050150Z AUTO 08004KT 7SM CLR 20/19 A3026 RMK AO2 T01980193
Pressure 30.26 in
Visibility 7.0 miles
Clouds Clear
Dew Point 57 °F
Humidity 69%
Rainfall 0.04 in
Snow Depth Not available.
UV 0 out of 12
Pollen 9.30 out of 12
Air Quality Not available.
Flu Activity Not available.
METAR KHSP 050150Z AUTO 08004KT 7SM CLR 20/19 A3026 RMK AO2 T01980193

10-Day Weather Forecast

×

Almanac

Astronomy

Sep. 04, 2015 Rise Set
Actual Time
Civil Twilight
Nautical Twilight
Astronomical Twilight
Moon
Length of Visible Light
Length of Day
Tomorrow will be .
, % of the Moon is Illuminated

Today's Extremes

State Highs State Lows

Community

WunderPhotos

Upload Photos

1,852,391 photos uploaded!

WunderBlogs® & News

Nearby

Air Quality

  Air Quality AQ Index Pollutant
Not available.

Snow Depth

Station Depth Elevation

Earthquake Activity

City Distance Mag. Time & Date
Minimum magnitude displayed is 2.5.

Coastal Water Temperatures

Place Temperature

Stations

Nearby Weather Stations

Station Location Temp. Windchill Dew Point Humidity Wind Precip. Elev Updated Type